createdAt,value
2022-12-18T00:01:07.354Z,22.38
2022-12-18T00:06:02.391Z,25.65
2022-12-18T00:11:00.540Z,29.30
2022-12-18T00:15:54.426Z,28.90
2022-12-18T00:20:49.935Z,33.63
2022-12-18T00:25:45.640Z,28.23
2022-12-18T00:30:38.869Z,28.52
2022-12-18T00:35:32.027Z,26.75
2022-12-18T00:40:25.353Z,31.58
2022-12-18T00:45:22.329Z,27.10
2022-12-18T00:50:15.617Z,30.63
2022-12-18T00:55:09.686Z,31.13
2022-12-18T01:00:02.971Z,33.00
2022-12-18T01:04:57.776Z,31.30
2022-12-18T01:09:51.033Z,29.73
2022-12-18T01:14:44.292Z,27.20
2022-12-18T01:19:40.119Z,25.05
2022-12-18T01:24:38.489Z,28.10
2022-12-18T01:29:31.979Z,32.58
2022-12-18T01:34:25.287Z,25.55
2022-12-18T01:39:18.530Z,27.30
2022-12-18T01:44:45.127Z,25.65
2022-12-18T01:49:39.882Z,28.85
2022-12-18T01:54:33.218Z,29.15
2022-12-18T01:59:26.788Z,30.20
2022-12-18T02:04:23.761Z,23.88
2022-12-18T02:09:23.635Z,23.98
2022-12-18T02:14:25.872Z,22.93
2022-12-18T02:19:45.413Z,25.80
2022-12-18T02:24:49.546Z,28.02
2022-12-18T02:29:54.342Z,25.92
2022-12-18T02:34:54.874Z,26.95
2022-12-18T02:39:51.493Z,24.73
2022-12-18T02:44:47.877Z,27.58
2022-12-18T02:49:56.064Z,24.98
2022-12-18T02:55:02.345Z,30.88
2022-12-18T03:00:03.766Z,30.97
2022-12-18T03:09:56.717Z,30.00
2022-12-18T03:14:53.121Z,32.43
2022-12-18T03:19:50.483Z,31.10
2022-12-18T03:24:44.551Z,32.40
2022-12-18T03:29:41.350Z,31.07
2022-12-18T03:34:39.269Z,36.27
2022-12-18T03:39:37.541Z,30.60
2022-12-18T03:44:36.708Z,31.37
2022-12-18T03:49:36.750Z,34.27
2022-12-18T03:54:33.574Z,33.13
2022-12-18T03:59:37.584Z,34.30
2022-12-18T04:04:33.349Z,38.20
2022-12-18T04:09:30.655Z,34.17
2022-12-18T04:14:24.848Z,37.67
2022-12-18T04:19:23.331Z,32.87
2022-12-18T04:24:19.219Z,36.80
2022-12-18T04:29:21.883Z,35.07
2022-12-18T04:34:17.082Z,38.30
2022-12-18T04:39:20.446Z,38.00
2022-12-18T04:44:16.362Z,37.38
2022-12-18T04:49:11.530Z,38.93
2022-12-18T04:54:04.887Z,37.10
2022-12-18T04:58:59.513Z,40.40
2022-12-18T05:03:53.616Z,36.80
2022-12-18T05:08:46.798Z,36.23
2022-12-18T05:13:40.990Z,46.23
2022-12-18T05:18:36.178Z,42.27
2022-12-18T05:23:32.480Z,41.73
2022-12-18T05:28:27.017Z,45.50
2022-12-18T05:33:20.982Z,42.90
2022-12-18T05:38:15.682Z,43.70
2022-12-18T05:43:08.851Z,42.40
2022-12-18T05:48:02.157Z,42.80
2022-12-18T05:52:55.334Z,43.33
2022-12-18T05:57:50.385Z,40.23
2022-12-18T06:02:43.741Z,44.33
2022-12-18T06:07:36.984Z,44.80
2022-12-18T06:12:30.238Z,44.13
2022-12-18T06:17:24.851Z,43.10
2022-12-18T06:22:17.971Z,41.33
2022-12-18T06:27:11.098Z,45.40
2022-12-18T06:32:04.340Z,43.83
2022-12-18T06:36:58.915Z,47.80
2022-12-18T06:41:52.026Z,43.27
2022-12-18T06:46:45.210Z,44.17
2022-12-18T06:51:38.487Z,45.57
2022-12-18T06:56:33.123Z,42.53
2022-12-18T07:01:26.385Z,41.67
2022-12-18T07:06:22.807Z,50.63
2022-12-18T07:11:16.498Z,42.57
2022-12-18T07:16:19.650Z,46.90
2022-12-18T07:21:20.202Z,45.30
2022-12-18T07:26:16.252Z,44.27
2022-12-18T07:31:12.437Z,43.00
2022-12-18T07:36:10.175Z,40.93
2022-12-18T07:41:04.064Z,41.57
2022-12-18T07:46:01.606Z,40.77
2022-12-18T07:51:00.020Z,47.23
2022-12-18T07:56:25.485Z,36.60
2022-12-18T08:01:12.617Z,39.57
2022-12-18T08:06:11.764Z,41.60
2022-12-18T08:11:06.976Z,42.87
2022-12-18T08:16:04.223Z,41.87
2022-12-18T08:20:58.179Z,40.97
2022-12-18T08:25:53.500Z,40.23
2022-12-18T08:30:47.252Z,39.37
2022-12-18T08:35:45.614Z,42.07
2022-12-18T08:40:39.631Z,40.45
2022-12-18T08:45:34.310Z,39.17
2022-12-18T08:50:27.685Z,37.22
2022-12-18T08:55:21.247Z,36.40
2022-12-18T09:00:16.811Z,35.80
2022-12-18T09:05:12.060Z,46.33
2022-12-18T09:10:06.256Z,39.00
2022-12-18T09:14:59.490Z,39.72
2022-12-18T09:19:53.279Z,37.23
2022-12-18T09:24:48.234Z,43.92
2022-12-18T09:29:41.473Z,42.97
2022-12-18T09:34:35.015Z,36.63
2022-12-18T09:39:28.203Z,37.40
2022-12-18T09:44:27.680Z,36.50
2022-12-18T09:49:24.653Z,34.80
2022-12-18T09:54:28.329Z,34.85
2022-12-18T09:59:28.820Z,35.27
2022-12-18T10:04:22.182Z,39.25
2022-12-18T10:09:23.737Z,40.67
2022-12-18T10:14:29.295Z,38.30
2022-12-18T10:19:50.510Z,38.30
2022-12-18T10:24:52.615Z,38.72
2022-12-18T10:29:48.455Z,36.65
2022-12-18T10:34:41.921Z,41.75
2022-12-18T10:39:35.517Z,34.95
2022-12-18T10:44:29.152Z,39.72
2022-12-18T10:49:28.164Z,38.97
2022-12-18T10:54:24.864Z,37.60
2022-12-18T10:59:19.858Z,39.22
2022-12-18T11:04:37.481Z,34.50
2022-12-18T11:09:32.998Z,40.65
2022-12-18T11:14:28.587Z,39.33
2022-12-18T11:19:32.386Z,48.70
2022-12-18T11:24:32.179Z,40.20
2022-12-18T11:29:35.127Z,41.23
2022-12-18T11:34:31.491Z,44.40
2022-12-18T11:39:34.313Z,64.38
2022-12-18T11:44:33.780Z,45.67
2022-12-18T11:49:31.304Z,49.63
2022-12-18T11:54:24.644Z,42.83
2022-12-18T11:59:29.558Z,38.33
2022-12-18T12:04:47.329Z,37.88
2022-12-18T12:09:48.786Z,38.83
2022-12-18T12:14:55.222Z,43.50
2022-12-18T12:20:00.305Z,40.35
2022-12-18T12:25:05.973Z,52.17
2022-12-18T12:30:08.444Z,47.72
2022-12-18T12:35:19.144Z,46.53
2022-12-18T12:40:49.761Z,46.78
2022-12-18T12:45:41.257Z,43.75
2022-12-18T12:50:37.749Z,43.90
2022-12-18T12:55:32.115Z,40.10
2022-12-18T13:00:26.892Z,41.85
2022-12-18T13:05:28.318Z,44.78
2022-12-18T13:10:28.830Z,45.55
2022-12-18T13:15:25.057Z,49.05
2022-12-18T13:20:20.472Z,49.15
2022-12-18T13:25:33.702Z,46.90
2022-12-18T13:31:00.097Z,42.30
2022-12-18T13:36:03.249Z,45.40
2022-12-18T13:41:00.320Z,44.87
2022-12-18T13:46:03.900Z,54.00
2022-12-18T13:51:24.175Z,52.17
2022-12-18T13:56:36.395Z,48.77
2022-12-18T14:02:05.599Z,50.40
2022-12-18T14:07:13.657Z,47.47
2022-12-18T14:12:45.925Z,48.08
2022-12-18T14:17:45.050Z,46.13
2022-12-18T14:22:52.447Z,56.30
2022-12-18T14:28:00.698Z,62.60
2022-12-18T14:33:02.810Z,83.87
2022-12-18T14:37:56.180Z,53.23
2022-12-18T14:42:51.243Z,56.63
2022-12-18T14:47:46.201Z,57.60
2022-12-18T15:12:29.729Z,80.22
2022-12-18T15:25:45.817Z,70.93
2022-12-18T15:37:49.001Z,58.65
2022-12-18T15:43:32.864Z,64.37
2022-12-18T15:48:45.392Z,61.58
2022-12-18T15:53:53.885Z,67.27
2022-12-18T15:59:21.847Z,61.10
2022-12-18T16:04:24.919Z,61.25
2022-12-18T16:21:48.704Z,61.57
2022-12-18T16:27:48.644Z,73.17
2022-12-18T16:34:10.237Z,63.27
2022-12-18T16:46:00.200Z,53.43
2022-12-18T16:51:24.110Z,53.47
2022-12-18T16:58:07.616Z,53.53
2022-12-18T17:08:39.981Z,45.70
2022-12-18T17:14:16.054Z,103.63
2022-12-18T17:19:17.705Z,55.17
2022-12-18T17:24:11.354Z,46.43
2022-12-18T17:29:09.182Z,42.87
2022-12-18T17:34:33.362Z,35.73
2022-12-18T17:40:19.832Z,32.20
2022-12-18T17:46:10.502Z,29.53
2022-12-18T17:51:17.574Z,41.17
2022-12-18T17:56:25.903Z,32.73
2022-12-18T18:01:50.764Z,29.23
2022-12-18T18:13:49.313Z,26.37
2022-12-18T18:18:48.754Z,25.00
2022-12-18T18:23:46.624Z,23.33
2022-12-18T18:29:05.083Z,24.70
2022-12-18T18:34:03.008Z,27.47
2022-12-18T18:39:06.523Z,24.47
2022-12-18T18:44:12.839Z,23.03
2022-12-18T18:49:09.946Z,28.73
2022-12-18T18:54:10.358Z,40.23
2022-12-18T18:59:05.120Z,33.90
2022-12-18T19:04:29.071Z,29.90
2022-12-18T19:09:30.364Z,27.90
2022-12-18T19:14:45.704Z,36.73
2022-12-18T19:27:37.787Z,35.40
2022-12-18T19:39:12.753Z,37.47
2022-12-18T19:45:37.067Z,43.80
2022-12-18T19:50:32.409Z,33.67
2022-12-18T19:56:11.217Z,31.07
2022-12-18T20:01:48.900Z,31.37
2022-12-18T20:07:29.635Z,39.67
2022-12-18T20:13:11.034Z,37.63
2022-12-18T20:18:31.185Z,39.13
2022-12-18T20:23:30.008Z,37.73
2022-12-18T20:28:57.147Z,35.47
2022-12-18T20:34:06.146Z,39.47
2022-12-18T20:39:18.104Z,42.17
2022-12-18T20:44:36.032Z,39.70
2022-12-18T20:49:57.298Z,41.73
2022-12-18T21:01:17.109Z,40.50
2022-12-18T21:11:52.236Z,35.13
2022-12-18T21:16:51.328Z,28.53
2022-12-18T21:21:47.678Z,29.40
2022-12-18T21:32:29.884Z,25.25
2022-12-18T21:37:36.362Z,25.10
2022-12-18T21:42:50.796Z,25.00
2022-12-18T21:48:14.693Z,28.17
2022-12-18T21:53:09.626Z,24.37
2022-12-18T21:58:09.568Z,26.87
2022-12-18T22:03:17.471Z,26.50
2022-12-18T22:08:13.818Z,23.37
2022-12-18T22:13:17.016Z,23.97
2022-12-18T22:18:23.094Z,26.20
2022-12-18T22:23:29.190Z,22.80
2022-12-18T22:28:43.975Z,27.50
2022-12-18T22:33:46.777Z,25.97
2022-12-18T22:38:50.889Z,24.43
2022-12-18T22:44:31.882Z,26.07
2022-12-18T22:49:34.877Z,27.97
2022-12-18T22:55:02.281Z,29.70
2022-12-18T23:05:52.403Z,30.33
2022-12-18T23:10:56.185Z,28.70
2022-12-18T23:15:49.881Z,30.20
2022-12-18T23:20:47.951Z,30.53
2022-12-18T23:25:46.718Z,31.13
2022-12-18T23:30:42.977Z,31.43
2022-12-18T23:35:45.570Z,31.93
2022-12-18T23:40:39.007Z,29.27
2022-12-18T23:45:52.514Z,34.07
2022-12-18T23:50:49.233Z,29.67
2022-12-18T23:55:45.097Z,28.50
